Time;durP1;ratioP1;P1;durP2;ratioP2;P2;SDS_P1;SDS_P2;PMS_P1;PMS_P2;Temp;Humidity;BMP_temperature;BMP_pressure;BME280_temperature;BME280_humidity;BME280_pressure;Samples;Min_cycle;Max_cycle;Signal;HPM_P1;HPM_P2
2023/08/01 00:01:43;;;;;;;2.78;2.58;;;;;;;;;;5075581;28;20211;-61
2023/08/01 00:04:12;;;;;;;4.93;2.63;;;;;;;;;;5091865;28;20226;-62
2023/08/01 00:06:39;;;;;;;3.33;2.70;;;;;;;;;;5091138;28;20213;-62
2023/08/01 00:09:06;;;;;;;2.45;2.35;;;;;;;;;;5092094;28;20202;-61
2023/08/01 00:11:33;;;;;;;2.88;2.67;;;;;;;;;;5091944;28;20206;-61
2023/08/01 00:14:00;;;;;;;2.72;2.20;;;;;;;;;;5091170;28;20206;-62
2023/08/01 00:16:27;;;;;;;2.63;2.42;;;;;;;;;;5086947;28;20214;-62
2023/08/01 00:18:54;;;;;;;2.80;2.60;;;;;;;;;;5090391;28;20229;-62
2023/08/01 00:21:22;;;;;;;4.88;3.00;;;;;;;;;;5091712;28;20199;-62
2023/08/01 00:23:49;;;;;;;3.25;2.80;;;;;;;;;;5084149;28;20328;-61
2023/08/01 00:26:17;;;;;;;2.95;2.75;;;;;;;;;;5091565;28;20198;-61
2023/08/01 00:28:44;;;;;;;3.90;2.47;;;;;;;;;;5090794;28;20217;-61
2023/08/01 00:31:11;;;;;;;6.32;3.05;;;;;;;;;;5091722;28;20249;-62
2023/08/01 00:33:38;;;;;;;4.57;3.20;;;;;;;;;;5090591;28;20213;-61
2023/08/01 00:36:08;;;;;;;3.25;3.00;;;;;;;;;;5091567;28;20229;-61
2023/08/01 00:38:37;;;;;;;4.18;2.90;;;;;;;;;;5089337;28;20202;-62
2023/08/01 00:41:04;;;;;;;2.55;2.45;;;;;;;;;;5087015;28;20293;-61
2023/08/01 00:43:31;;;;;;;2.78;2.40;;;;;;;;;;5091175;28;20231;-61
2023/08/01 00:46:00;;;;;;;2.35;2.25;;;;;;;;;;5090342;28;20209;-61
2023/08/01 00:48:27;;;;;;;3.30;2.40;;;;;;;;;;5091381;28;20546;-62
2023/08/01 00:50:56;;;;;;;2.40;2.20;;;;;;;;;;5090750;28;20680;-61
2023/08/01 00:53:23;;;;;;;2.40;2.00;;;;;;;;;;5091320;28;20205;-61
2023/08/01 00:55:53;;;;;;;3.60;2.13;;;;;;;;;;5090458;28;20214;-61
2023/08/01 00:58:20;;;;;;;2.22;2.13;;;;;;;;;;5089469;28;20241;-61
2023/08/01 01:00:47;;;;;;;5.72;3.00;;;;;;;;;;5087750;28;20210;-62
2023/08/01 01:03:16;;;;;;;4.50;2.55;;;;;;;;;;5077524;28;20323;-62
2023/08/01 01:05:45;;;;;;;3.13;2.60;;;;;;;;;;5083925;28;20570;-61
2023/08/01 01:08:12;;;;;;;2.55;2.38;;;;;;;;;;5089983;28;20206;-61
2023/08/01 01:10:39;;;;;;;4.28;2.55;;;;;;;;;;5091237;28;20206;-61
2023/08/01 01:13:07;;;;;;;2.63;2.38;;;;;;;;;;5089999;28;20210;-61
2023/08/01 01:15:34;;;;;;;2.85;2.47;;;;;;;;;;5090756;28;20203;-61
2023/08/01 01:18:01;;;;;;;5.63;2.92;;;;;;;;;;5090392;28;20229;-61
2023/08/01 01:20:33;;;;;;;3.47;2.38;;;;;;;;;;5079892;28;20596;-61
2023/08/01 01:23:01;;;;;;;2.22;1.98;;;;;;;;;;5089812;28;20234;-61
2023/08/01 01:25:28;;;;;;;2.83;2.58;;;;;;;;;;5088752;28;20210;-62
2023/08/01 01:27:55;;;;;;;2.42;2.22;;;;;;;;;;5090012;28;20209;-62
2023/08/01 01:30:23;;;;;;;3.05;2.38;;;;;;;;;;5089795;28;20213;-61
2023/08/01 01:32:50;;;;;;;2.33;2.10;;;;;;;;;;5090361;28;20230;-61
2023/08/01 01:35:17;;;;;;;3.00;2.80;;;;;;;;;;5089620;28;20217;-61
2023/08/01 01:37:46;;;;;;;2.80;2.55;;;;;;;;;;5089847;28;20228;-61
2023/08/01 01:40:13;;;;;;;2.50;2.30;;;;;;;;;;5090262;28;20699;-60
2023/08/01 01:42:40;;;;;;;2.75;2.45;;;;;;;;;;5089501;28;20214;-61
2023/08/01 01:45:07;;;;;;;2.78;2.45;;;;;;;;;;5090054;28;20222;-61
2023/08/01 01:47:34;;;;;;;4.15;2.17;;;;;;;;;;5089403;28;21758;-61
2023/08/01 01:50:01;;;;;;;5.25;2.22;;;;;;;;;;5090041;28;20707;-61
2023/08/01 01:52:28;;;;;;;6.03;2.20;;;;;;;;;;5089077;28;20213;-61
2023/08/01 01:54:57;;;;;;;3.28;2.28;;;;;;;;;;5089395;28;20233;-61
2023/08/01 01:57:24;;;;;;;2.83;2.63;;;;;;;;;;5089070;28;20198;-61
2023/08/01 01:59:51;;;;;;;3.53;2.55;;;;;;;;;;5089664;28;20206;-62
2023/08/01 02:02:18;;;;;;;4.60;2.80;;;;;;;;;;5087015;28;20202;-62
2023/08/01 02:04:47;;;;;;;2.50;2.30;;;;;;;;;;5089516;28;20218;-62
2023/08/01 02:07:15;;;;;;;2.67;2.35;;;;;;;;;;5088139;28;20210;-61
2023/08/01 02:09:42;;;;;;;3.30;2.50;;;;;;;;;;5074669;28;20237;-61
2023/08/01 02:12:13;;;;;;;2.95;2.50;;;;;;;;;;5089649;28;20210;-62
2023/08/01 02:14:40;;;;;;;3.22;3.00;;;;;;;;;;5071607;28;20207;-61
2023/08/01 02:17:07;;;;;;;6.13;2.65;;;;;;;;;;5078907;28;20210;-61
2023/08/01 02:19:35;;;;;;;5.07;2.40;;;;;;;;;;5076178;28;20234;-61
2023/08/01 02:22:02;;;;;;;2.95;2.67;;;;;;;;;;5088864;28;20217;-61
2023/08/01 02:24:29;;;;;;;4.97;2.13;;;;;;;;;;5088942;28;20704;-62
2023/08/01 02:26:56;;;;;;;2.80;2.60;;;;;;;;;;5089277;28;20202;-61
2023/08/01 02:29:25;;;;;;;3.95;2.60;;;;;;;;;;5088595;28;20202;-61
2023/08/01 02:31:52;;;;;;;3.25;2.95;;;;;;;;;;5088937;28;20234;-62
2023/08/01 02:34:19;;;;;;;3.05;2.83;;;;;;;;;;5088975;28;20242;-62
2023/08/01 02:36:46;;;;;;;3.10;2.35;;;;;;;;;;5088743;28;20229;-61
2023/08/01 02:39:13;;;;;;;3.55;2.25;;;;;;;;;;5089083;28;20206;-61
2023/08/01 02:41:40;;;;;;;4.47;2.33;;;;;;;;;;5088610;28;20203;-62
2023/08/01 02:44:07;;;;;;;2.88;2.65;;;;;;;;;;5089150;28;20237;-62
2023/08/01 02:46:35;;;;;;;3.20;2.67;;;;;;;;;;5080232;28;20212;-61
2023/08/01 02:49:02;;;;;;;2.38;2.17;;;;;;;;;;5089382;28;20284;-61
2023/08/01 02:51:29;;;;;;;2.30;2.20;;;;;;;;;;5088148;28;20221;-61
2023/08/01 02:53:56;;;;;;;3.20;2.30;;;;;;;;;;5089329;28;20202;-61
2023/08/01 02:56:24;;;;;;;8.13;2.30;;;;;;;;;;5089269;28;20202;-61
2023/08/01 02:58:52;;;;;;;2.60;2.40;;;;;;;;;;5088738;28;20213;-62
2023/08/01 03:01:19;;;;;;;4.85;2.58;;;;;;;;;;5089151;28;20283;-61
2023/08/01 03:03:47;;;;;;;2.35;2.15;;;;;;;;;;5088524;28;20253;-61
2023/08/01 03:06:15;;;;;;;2.47;2.30;;;;;;;;;;5092794;28;20206;-62
2023/08/01 03:08:42;;;;;;;2.85;2.40;;;;;;;;;;5086610;28;20202;-62
2023/08/01 03:11:09;;;;;;;3.00;2.50;;;;;;;;;;5093082;28;20203;-62
2023/08/01 03:13:36;;;;;;;3.08;2.45;;;;;;;;;;5092198;28;20202;-61
2023/08/01 03:16:12;;;;;;;2.22;2.13;;;;;;;;;;5093136;28;20691;-62
2023/08/01 03:18:39;;;;;;;1.90;1.80;;;;;;;;;;5090680;28;20209;-61
2023/08/01 03:21:07;;;;;;;3.78;2.10;;;;;;;;;;5086324;28;20210;-62
2023/08/01 03:23:34;;;;;;;1.77;1.67;;;;;;;;;;5092481;28;20222;-61
2023/08/01 03:26:01;;;;;;;2.28;1.90;;;;;;;;;;5091920;28;20213;-62
2023/08/01 03:28:28;;;;;;;1.88;1.77;;;;;;;;;;5092932;28;20198;-61
2023/08/01 03:30:55;;;;;;;2.10;1.90;;;;;;;;;;5092283;28;20206;-61
2023/08/01 03:33:22;;;;;;;1.45;1.45;;;;;;;;;;5091984;28;20207;-61
2023/08/01 03:35:49;;;;;;;2.15;1.80;;;;;;;;;;5092313;28;20556;-61
2023/08/01 03:38:18;;;;;;;1.50;1.50;;;;;;;;;;5092250;28;20222;-61
2023/08/01 03:40:45;;;;;;;4.50;2.20;;;;;;;;;;5092234;28;20195;-61
2023/08/01 03:43:12;;;;;;;1.95;1.70;;;;;;;;;;5091603;28;20232;-61
2023/08/01 03:45:39;;;;;;;1.58;1.48;;;;;;;;;;5092511;28;20228;-61
2023/08/01 03:48:06;;;;;;;1.77;1.67;;;;;;;;;;5091663;28;20206;-62
2023/08/01 03:50:33;;;;;;;3.10;1.92;;;;;;;;;;5092065;28;20210;-61
2023/08/01 03:53:00;;;;;;;4.00;2.10;;;;;;;;;;5091393;28;20210;-62
2023/08/01 03:55:28;;;;;;;1.90;1.77;;;;;;;;;;5092124;28;20579;-62
2023/08/01 03:57:55;;;;;;;1.75;1.65;;;;;;;;;;5088702;28;20989;-61
2023/08/01 04:00:23;;;;;;;2.20;2.00;;;;;;;;;;5087892;28;20605;-61
2023/08/01 04:02:50;;;;;;;4.15;2.05;;;;;;;;;;5092159;28;20210;-62
2023/08/01 04:05:17;;;;;;;2.70;1.90;;;;;;;;;;5079797;28;20222;-61
2023/08/01 04:07:44;;;;;;;2.50;2.30;;;;;;;;;;5092049;28;20618;-61
2023/08/01 04:10:12;;;;;;;5.00;2.10;;;;;;;;;;5092376;28;20202;-61
2023/08/01 04:12:41;;;;;;;4.45;1.90;;;;;;;;;;5091565;28;20202;-62
2023/08/01 04:15:09;;;;;;;2.65;2.33;;;;;;;;;;5091527;28;20556;-61
2023/08/01 04:17:36;;;;;;;2.38;2.17;;;;;;;;;;5087861;28;20214;-61
2023/08/01 04:20:03;;;;;;;4.53;1.90;;;;;;;;;;5091793;28;20210;-61
2023/08/01 04:22:30;;;;;;;3.63;2.20;;;;;;;;;;5091547;28;20573;-61
2023/08/01 04:24:57;;;;;;;2.42;1.98;;;;;;;;;;5091516;28;20696;-61
2023/08/01 04:27:24;;;;;;;2.28;2.08;;;;;;;;;;5080056;28;20203;-61
2023/08/01 04:29:54;;;;;;;2.15;1.80;;;;;;;;;;5092216;28;20225;-62
2023/08/01 04:32:21;;;;;;;2.70;2.30;;;;;;;;;;5090794;28;20262;-61
2023/08/01 04:34:48;;;;;;;2.35;2.15;;;;;;;;;;5091725;28;20577;-61
2023/08/01 04:37:15;;;;;;;2.65;1.85;;;;;;;;;;5091164;28;20216;-62
2023/08/01 04:39:42;;;;;;;2.65;1.70;;;;;;;;;;5090939;28;20210;-62
2023/08/01 04:42:09;;;;;;;2.40;2.20;;;;;;;;;;5091455;28;20206;-62
2023/08/01 04:44:36;;;;;;;3.83;2.13;;;;;;;;;;5090511;28;20248;-62
2023/08/01 04:47:10;;;;;;;2.63;2.03;;;;;;;;;;5089899;28;20668;-62
2023/08/01 04:49:37;;;;;;;2.75;1.73;;;;;;;;;;5091466;28;20201;-62
2023/08/01 04:52:05;;;;;;;2.97;2.10;;;;;;;;;;5091271;28;20202;-61
2023/08/01 04:54:32;;;;;;;1.88;1.70;;;;;;;;;;5090766;28;20194;-61
2023/08/01 04:56:59;;;;;;;1.95;1.85;;;;;;;;;;5090900;28;20202;-61
2023/08/01 04:59:26;;;;;;;2.92;2.10;;;;;;;;;;5090788;28;20209;-61
2023/08/01 05:01:53;;;;;;;1.90;1.80;;;;;;;;;;5090213;28;20213;-61
2023/08/01 05:04:21;;;;;;;2.00;1.90;;;;;;;;;;5091243;28;20218;-62
2023/08/01 05:06:49;;;;;;;1.80;1.70;;;;;;;;;;5090849;28;20284;-61
2023/08/01 05:09:16;;;;;;;2.97;1.67;;;;;;;;;;5090136;28;20199;-62
2023/08/01 05:11:43;;;;;;;1.23;1.13;;;;;;;;;;5091095;28;20211;-62
2023/08/01 05:14:10;;;;;;;3.63;1.50;;;;;;;;;;5090548;28;20661;-61
2023/08/01 05:16:37;;;;;;;1.90;1.63;;;;;;;;;;5085808;28;20199;-61
2023/08/01 05:19:04;;;;;;;1.27;1.10;;;;;;;;;;5088502;28;20206;-61
2023/08/01 05:21:32;;;;;;;1.80;1.70;;;;;;;;;;5088963;28;20217;-62
2023/08/01 05:23:59;;;;;;;1.55;1.55;;;;;;;;;;5090557;28;20209;-61
2023/08/01 05:26:26;;;;;;;2.33;1.13;;;;;;;;;;5090850;28;20206;-62
2023/08/01 05:28:53;;;;;;;1.63;1.48;;;;;;;;;;5090187;28;20206;-61
2023/08/01 05:31:20;;;;;;;1.63;1.52;;;;;;;;;;5090252;28;20242;-61
2023/08/01 05:33:47;;;;;;;1.88;1.77;;;;;;;;;;5090815;28;20217;-61
2023/08/01 05:36:14;;;;;;;4.50;1.60;;;;;;;;;;5089695;28;20194;-60
2023/08/01 05:38:43;;;;;;;1.92;1.83;;;;;;;;;;5090624;28;20206;-61
2023/08/01 05:41:10;;;;;;;1.65;1.55;;;;;;;;;;5090234;28;20215;-61
2023/08/01 05:43:37;;;;;;;1.35;1.25;;;;;;;;;;5090425;28;20245;-61
2023/08/01 05:46:04;;;;;;;1.92;1.55;;;;;;;;;;5089836;28;20225;-61
2023/08/01 05:48:31;;;;;;;1.88;1.40;;;;;;;;;;5088971;28;20199;-61
2023/08/01 05:50:58;;;;;;;3.58;1.63;;;;;;;;;;5090470;28;20206;-61
2023/08/01 05:53:25;;;;;;;1.58;1.48;;;;;;;;;;5089973;28;20206;-61
2023/08/01 05:55:53;;;;;;;1.17;1.17;;;;;;;;;;5088586;28;20206;-62
2023/08/01 05:58:20;;;;;;;1.33;1.33;;;;;;;;;;5087123;28;20202;-62
2023/08/01 06:00:47;;;;;;;2.58;1.30;;;;;;;;;;5087283;28;20202;-61
2023/08/01 06:03:14;;;;;;;1.70;1.60;;;;;;;;;;5088309;28;20210;-62
2023/08/01 06:05:41;;;;;;;1.70;1.60;;;;;;;;;;5089839;28;20219;-62
2023/08/01 06:08:09;;;;;;;3.72;1.90;;;;;;;;;;5089236;28;20211;-61
2023/08/01 06:10:36;;;;;;;1.85;1.70;;;;;;;;;;5089990;28;20209;-62
2023/08/01 06:13:04;;;;;;;2.00;1.90;;;;;;;;;;5087933;28;20198;-61
2023/08/01 06:15:31;;;;;;;1.70;1.60;;;;;;;;;;5075647;28;20195;-61
2023/08/01 06:17:58;;;;;;;5.43;1.98;;;;;;;;;;5075065;28;20209;-62
2023/08/01 06:20:26;;;;;;;2.08;1.98;;;;;;;;;;5069357;28;20236;-61
2023/08/01 06:22:53;;;;;;;2.10;1.73;;;;;;;;;;5069092;28;20669;-62
2023/08/01 06:25:20;;;;;;;2.00;1.90;;;;;;;;;;5087525;28;20230;-62
2023/08/01 06:27:47;;;;;;;2.15;1.95;;;;;;;;;;5089508;28;20695;-61
2023/08/01 06:30:15;;;;;;;1.90;1.80;;;;;;;;;;5088329;28;20210;-61
2023/08/01 06:32:42;;;;;;;1.98;1.70;;;;;;;;;;5089304;28;20241;-61
2023/08/01 06:35:09;;;;;;;1.50;1.50;;;;;;;;;;5073996;28;20206;-61
2023/08/01 06:37:36;;;;;;;1.30;1.30;;;;;;;;;;5069328;28;20238;-61
2023/08/01 06:40:04;;;;;;;1.88;1.42;;;;;;;;;;5079095;28;20669;-61
2023/08/01 06:42:31;;;;;;;1.38;1.38;;;;;;;;;;5089653;28;20209;-61
2023/08/01 06:44:58;;;;;;;1.30;1.30;;;;;;;;;;5088136;28;20665;-61
2023/08/01 06:47:26;;;;;;;1.63;1.13;;;;;;;;;;5089540;28;20202;-61
2023/08/01 06:49:53;;;;;;;2.15;1.48;;;;;;;;;;5080226;28;20203;-61
2023/08/01 06:52:20;;;;;;;1.50;1.40;;;;;;;;;;5069153;28;20211;-61
2023/08/01 06:54:47;;;;;;;1.13;1.13;;;;;;;;;;5079515;28;20206;-61
2023/08/01 06:57:14;;;;;;;1.15;1.05;;;;;;;;;;5088588;28;20206;-61
2023/08/01 06:59:42;;;;;;;1.00;1.00;;;;;;;;;;5089083;28;20202;-63
2023/08/01 07:02:09;;;;;;;2.63;0.70;;;;;;;;;;5085008;28;20210;-61
2023/08/01 07:04:37;;;;;;;0.70;0.70;;;;;;;;;;5088540;28;20409;-64
2023/08/01 07:07:05;;;;;;;0.70;0.70;;;;;;;;;;5075461;28;20260;-63
2023/08/01 07:09:32;;;;;;;3.53;0.73;;;;;;;;;;5088640;28;20199;-61
2023/08/01 07:11:59;;;;;;;0.57;0.57;;;;;;;;;;5088648;28;20620;-61
2023/08/01 07:14:26;;;;;;;0.45;0.45;;;;;;;;;;5077205;28;20199;-61
2023/08/01 07:16:53;;;;;;;0.40;0.40;;;;;;;;;;5074270;28;20217;-62
2023/08/01 07:19:20;;;;;;;0.30;0.30;;;;;;;;;;5089220;28;20206;-61
2023/08/01 07:21:48;;;;;;;0.43;0.43;;;;;;;;;;5089259;28;20210;-62
2023/08/01 07:24:16;;;;;;;0.25;0.25;;;;;;;;;;5081832;28;20581;-62
2023/08/01 07:26:43;;;;;;;0.38;0.30;;;;;;;;;;5081293;28;20218;-61
2023/08/01 07:29:11;;;;;;;0.20;0.20;;;;;;;;;;5088275;28;20673;-62
2023/08/01 07:31:38;;;;;;;0.20;0.20;;;;;;;;;;5088914;28;20299;-61
2023/08/01 07:34:05;;;;;;;0.20;0.20;;;;;;;;;;5088114;28;20207;-61
2023/08/01 07:36:32;;;;;;;0.10;0.10;;;;;;;;;;5088891;28;20202;-61
2023/08/01 07:39:00;;;;;;;0.13;0.13;;;;;;;;;;5088099;28;20228;-61
2023/08/01 07:41:27;;;;;;;0.10;0.10;;;;;;;;;;5071555;28;20198;-61
2023/08/01 07:43:54;;;;;;;0.20;0.20;;;;;;;;;;5087390;28;20707;-62
2023/08/01 07:46:21;;;;;;;0.10;0.10;;;;;;;;;;5085671;28;20230;-62
2023/08/01 07:48:49;;;;;;;0.10;0.10;;;;;;;;;;5086319;28;20213;-61
2023/08/01 07:51:16;;;;;;;0.20;0.20;;;;;;;;;;5087267;28;20210;-60
2023/08/01 07:53:43;;;;;;;0.15;0.15;;;;;;;;;;5091958;28;20530;-61
2023/08/01 07:56:12;;;;;;;0.10;0.10;;;;;;;;;;5089832;28;20338;-61
2023/08/01 07:58:39;;;;;;;0.20;0.20;;;;;;;;;;5091568;28;20218;-60
2023/08/01 08:01:06;;;;;;;0.22;0.22;;;;;;;;;;5085601;28;20664;-61
2023/08/01 08:03:33;;;;;;;1.40;0.20;;;;;;;;;;5091666;28;20221;-60
2023/08/01 08:06:00;;;;;;;0.00;0.00;;;;;;;;;;5088315;28;20612;-62
2023/08/01 08:08:27;;;;;;;0.90;0.13;;;;;;;;;;5089832;28;20208;-60
2023/08/01 08:10:54;;;;;;;0.20;0.20;;;;;;;;;;5089995;28;20229;-61
2023/08/01 08:13:23;;;;;;;0.17;0.17;;;;;;;;;;5090770;28;20298;-61
2023/08/01 08:15:51;;;;;;;0.20;0.20;;;;;;;;;;5091540;28;20210;-61
2023/08/01 08:18:19;;;;;;;0.10;0.10;;;;;;;;;;5090263;28;20210;-61
2023/08/01 08:20:47;;;;;;;0.35;0.35;;;;;;;;;;5091527;28;20295;-60
2023/08/01 08:23:14;;;;;;;0.20;0.20;;;;;;;;;;5091832;28;20202;-61
2023/08/01 08:25:41;;;;;;;0.30;0.30;;;;;;;;;;5089630;28;20268;-61
2023/08/01 08:28:09;;;;;;;0.30;0.30;;;;;;;;;;5091541;28;20206;-60
2023/08/01 08:30:38;;;;;;;0.30;0.30;;;;;;;;;;5090700;28;20206;-61
2023/08/01 08:33:06;;;;;;;1.48;0.30;;;;;;;;;;5091160;28;20241;-60
2023/08/01 08:35:34;;;;;;;0.68;0.32;;;;;;;;;;5090739;28;20229;-61
2023/08/01 08:38:01;;;;;;;0.40;0.40;;;;;;;;;;5091223;28;20210;-61
2023/08/01 08:40:29;;;;;;;0.30;0.30;;;;;;;;;;5091508;28;20206;-60
2023/08/01 08:42:56;;;;;;;0.30;0.30;;;;;;;;;;5090083;28;20228;-61
2023/08/01 08:45:24;;;;;;;0.28;0.20;;;;;;;;;;5085377;28;20330;-62
2023/08/01 08:47:57;;;;;;;0.30;0.30;;;;;;;;;;5075173;28;20206;-62
2023/08/01 08:50:24;;;;;;;0.52;0.20;;;;;;;;;;5090943;28;20310;-61
2023/08/01 08:52:51;;;;;;;0.30;0.30;;;;;;;;;;5090299;28;20210;-61
2023/08/01 08:55:21;;;;;;;0.32;0.32;;;;;;;;;;5075071;28;20198;-61
2023/08/01 08:57:50;;;;;;;0.40;0.40;;;;;;;;;;5090052;28;20202;-65
2023/08/01 09:00:18;;;;;;;2.05;0.30;;;;;;;;;;5088549;28;20933;-65
2023/08/01 09:02:45;;;;;;;0.50;0.50;;;;;;;;;;5087995;28;20202;-65
2023/08/01 09:05:13;;;;;;;0.32;0.32;;;;;;;;;;5077246;28;20206;-69
2023/08/01 09:07:42;;;;;;;0.40;0.40;;;;;;;;;;5090789;28;20219;-67
2023/08/01 09:10:10;;;;;;;0.57;0.55;;;;;;;;;;5082828;28;20715;-67
2023/08/01 09:12:37;;;;;;;1.58;0.40;;;;;;;;;;5090536;28;20209;-67
2023/08/01 09:15:04;;;;;;;0.30;0.30;;;;;;;;;;5087600;28;20210;-59
2023/08/01 09:17:31;;;;;;;0.30;0.30;;;;;;;;;;5088462;28;20210;-61
2023/08/01 09:20:05;;;;;;;0.60;0.60;;;;;;;;;;5087478;28;20213;-61
2023/08/01 09:22:42;;;;;;;0.43;0.43;;;;;;;;;;5088717;28;20210;-61
2023/08/01 09:25:09;;;;;;;0.50;0.50;;;;;;;;;;5089988;28;20209;-61
2023/08/01 09:27:36;;;;;;;0.50;0.50;;;;;;;;;;5089606;28;20236;-61
2023/08/01 09:30:07;;;;;;;0.60;0.60;;;;;;;;;;5090049;28;20202;-60
2023/08/01 09:32:34;;;;;;;0.50;0.50;;;;;;;;;;5088228;28;20242;-61
2023/08/01 09:35:01;;;;;;;2.00;0.55;;;;;;;;;;5071077;28;20244;-61
2023/08/01 09:37:38;;;;;;;0.50;0.50;;;;;;;;;;5084392;28;20214;-61
2023/08/01 09:40:07;;;;;;;0.70;0.70;;;;;;;;;;5090082;28;20516;-61
2023/08/01 09:42:39;;;;;;;1.25;0.65;;;;;;;;;;5089070;28;20213;-61
2023/08/01 09:45:08;;;;;;;0.50;0.50;;;;;;;;;;5089987;28;20206;-62
2023/08/01 09:47:37;;;;;;;0.63;0.63;;;;;;;;;;5088873;28;20230;-61
2023/08/01 09:50:04;;;;;;;0.40;0.40;;;;;;;;;;5088508;28;20683;-61
2023/08/01 09:52:31;;;;;;;0.40;0.40;;;;;;;;;;5089318;28;20206;-60
2023/08/01 09:54:59;;;;;;;0.40;0.40;;;;;;;;;;5088998;28;20206;-61
2023/08/01 09:57:30;;;;;;;0.30;0.30;;;;;;;;;;5089291;28;20198;-61
2023/08/01 09:59:57;;;;;;;0.55;0.55;;;;;;;;;;5088480;28;20206;-62
2023/08/01 10:02:26;;;;;;;1.13;0.40;;;;;;;;;;5078429;28;20206;-61
2023/08/01 10:04:54;;;;;;;0.63;0.63;;;;;;;;;;5077070;28;20202;-61
2023/08/01 10:07:24;;;;;;;3.30;0.50;;;;;;;;;;5088398;28;20276;-61
2023/08/01 10:09:51;;;;;;;0.38;0.38;;;;;;;;;;5089342;28;20202;-61
2023/08/01 10:12:19;;;;;;;2.25;0.70;;;;;;;;;;5088628;28;20213;-65
2023/08/01 10:14:48;;;;;;;0.40;0.40;;;;;;;;;;5087902;28;20238;-61
2023/08/01 10:17:15;;;;;;;0.52;0.52;;;;;;;;;;5087260;28;20668;-62
2023/08/01 10:19:43;;;;;;;1.08;0.50;;;;;;;;;;5088605;28;20213;-61
2023/08/01 10:22:11;;;;;;;1.90;0.57;;;;;;;;;;5089168;28;20209;-60
2023/08/01 10:24:39;;;;;;;0.50;0.50;;;;;;;;;;5087722;28;20210;-61
2023/08/01 10:27:15;;;;;;;1.17;0.80;;;;;;;;;;5087562;28;20226;-65
2023/08/01 10:29:43;;;;;;;1.55;0.55;;;;;;;;;;5088862;28;20213;-60
2023/08/01 10:32:11;;;;;;;0.52;0.52;;;;;;;;;;5083960;28;20234;-62
2023/08/01 10:34:39;;;;;;;0.57;0.57;;;;;;;;;;5088625;28;20431;-63
2023/08/01 10:37:06;;;;;;;0.73;0.73;;;;;;;;;;5089304;28;20202;-62
2023/08/01 10:39:33;;;;;;;0.47;0.47;;;;;;;;;;5088213;28;20209;-64
2023/08/01 10:42:01;;;;;;;0.95;0.50;;;;;;;;;;5088508;28;20201;-64
2023/08/01 10:44:30;;;;;;;0.75;0.60;;;;;;;;;;5071705;28;20530;-64
2023/08/01 10:46:58;;;;;;;1.00;0.52;;;;;;;;;;5077145;28;20226;-65
2023/08/01 10:49:36;;;;;;;0.73;0.70;;;;;;;;;;5082097;28;20202;-65
2023/08/01 10:52:03;;;;;;;0.60;0.60;;;;;;;;;;5066313;28;20252;-64
2023/08/01 10:54:31;;;;;;;0.60;0.60;;;;;;;;;;5069134;28;20202;-63
2023/08/01 10:56:59;;;;;;;0.80;0.80;;;;;;;;;;5086558;28;20198;-63
2023/08/01 10:59:26;;;;;;;0.60;0.60;;;;;;;;;;5079127;28;20207;-64
2023/08/01 11:01:54;;;;;;;0.60;0.60;;;;;;;;;;5086260;28;20217;-64
2023/08/01 11:04:22;;;;;;;1.60;0.68;;;;;;;;;;5081762;28;20239;-65
2023/08/01 11:06:51;;;;;;;0.80;0.80;;;;;;;;;;5070542;28;20521;-65
2023/08/01 11:09:19;;;;;;;0.68;0.60;;;;;;;;;;5082477;28;20368;-65
2023/08/01 11:11:46;;;;;;;0.70;0.70;;;;;;;;;;5067857;28;20206;-64
2023/08/01 11:14:14;;;;;;;0.63;0.63;;;;;;;;;;5082632;28;20435;-65
2023/08/01 11:16:41;;;;;;;0.60;0.60;;;;;;;;;;5088058;28;20225;-66
2023/08/01 11:19:18;;;;;;;2.42;0.80;;;;;;;;;;5083619;28;20233;-64
2023/08/01 11:21:46;;;;;;;0.80;0.50;;;;;;;;;;5068298;28;20210;-65
2023/08/01 11:24:15;;;;;;;0.85;0.70;;;;;;;;;;5071532;28;20202;-65
2023/08/01 11:26:43;;;;;;;0.85;0.52;;;;;;;;;;5090333;28;20882;-64
2023/08/01 11:29:10;;;;;;;0.68;0.68;;;;;;;;;;5090453;28;20301;-65
2023/08/01 11:31:38;;;;;;;1.55;0.60;;;;;;;;;;5092108;28;20249;-66
2023/08/01 11:34:05;;;;;;;0.60;0.60;;;;;;;;;;5091798;28;20217;-65
2023/08/01 11:36:32;;;;;;;2.78;0.70;;;;;;;;;;5081162;28;20205;-64
2023/08/01 11:38:59;;;;;;;0.75;0.50;;;;;;;;;;5091041;28;20202;-65
2023/08/01 11:41:29;;;;;;;0.60;0.60;;;;;;;;;;5087110;28;20214;-66
2023/08/01 11:43:56;;;;;;;1.35;0.75;;;;;;;;;;5087099;28;20798;-66
2023/08/01 11:46:24;;;;;;;0.60;0.60;;;;;;;;;;5090849;28;20230;-66
2023/08/01 11:48:51;;;;;;;0.65;0.65;;;;;;;;;;5092036;28;20207;-65
2023/08/01 11:51:18;;;;;;;0.50;0.50;;;;;;;;;;5077016;28;20676;-65
2023/08/01 11:53:46;;;;;;;0.60;0.60;;;;;;;;;;5089451;28;20326;-66
2023/08/01 11:56:21;;;;;;;0.73;0.55;;;;;;;;;;5070730;28;20475;-66
2023/08/01 11:58:50;;;;;;;0.70;0.70;;;;;;;;;;5071088;28;20207;-64
2023/08/01 12:01:17;;;;;;;0.95;0.70;;;;;;;;;;5083387;28;20214;-63
2023/08/01 12:03:44;;;;;;;0.63;0.60;;;;;;;;;;5091084;28;20210;-64
2023/08/01 12:06:13;;;;;;;0.63;0.63;;;;;;;;;;5071309;28;20213;-63
2023/08/01 12:08:40;;;;;;;1.23;0.80;;;;;;;;;;5070488;28;20218;-63
2023/08/01 12:11:07;;;;;;;0.80;0.80;;;;;;;;;;5079584;28;20210;-63
2023/08/01 12:13:34;;;;;;;0.60;0.60;;;;;;;;;;5089501;28;20217;-60
2023/08/01 12:16:03;;;;;;;0.95;0.60;;;;;;;;;;5071407;28;20226;-59
2023/08/01 12:18:30;;;;;;;0.60;0.60;;;;;;;;;;5068551;28;20220;-59
2023/08/01 12:20:57;;;;;;;0.70;0.70;;;;;;;;;;5074240;28;20213;-60
2023/08/01 12:23:24;;;;;;;0.50;0.50;;;;;;;;;;5090250;28;20210;-60
2023/08/01 12:25:51;;;;;;;0.75;0.65;;;;;;;;;;5077299;28;20673;-60
2023/08/01 12:28:18;;;;;;;0.50;0.50;;;;;;;;;;5089989;28;20222;-60
2023/08/01 12:30:46;;;;;;;0.70;0.55;;;;;;;;;;5074302;28;20213;-59
2023/08/01 12:33:14;;;;;;;1.90;0.80;;;;;;;;;;5068554;28;20541;-60
2023/08/01 12:35:42;;;;;;;2.63;0.60;;;;;;;;;;5070211;28;20203;-61
2023/08/01 12:38:09;;;;;;;0.80;0.80;;;;;;;;;;5086867;28;20210;-60
2023/08/01 12:40:36;;;;;;;1.83;0.93;;;;;;;;;;5078280;28;20203;-60
2023/08/01 12:43:03;;;;;;;0.85;0.85;;;;;;;;;;5083126;28;20720;-60
2023/08/01 12:45:30;;;;;;;0.60;0.60;;;;;;;;;;5089538;28;20844;-60
2023/08/01 12:47:57;;;;;;;1.13;0.82;;;;;;;;;;5089326;28;20237;-60
2023/08/01 12:50:26;;;;;;;0.50;0.50;;;;;;;;;;5080398;28;20210;-60
2023/08/01 12:52:53;;;;;;;0.60;0.60;;;;;;;;;;5069260;28;20312;-60
2023/08/01 12:55:20;;;;;;;0.90;0.90;;;;;;;;;;5069746;28;20205;-59
2023/08/01 12:57:47;;;;;;;0.80;0.80;;;;;;;;;;5075705;28;21007;-60
2023/08/01 13:00:14;;;;;;;0.70;0.70;;;;;;;;;;5082440;28;20207;-59
2023/08/01 13:02:41;;;;;;;1.63;0.60;;;;;;;;;;5073354;28;20210;-59
2023/08/01 13:05:08;;;;;;;1.15;0.80;;;;;;;;;;5083292;28;20573;-59
2023/08/01 13:07:37;;;;;;;1.52;0.70;;;;;;;;;;5069430;28;20226;-60
2023/08/01 13:10:05;;;;;;;1.13;0.88;;;;;;;;;;5084097;28;20203;-60
2023/08/01 13:12:32;;;;;;;0.70;0.65;;;;;;;;;;5069365;28;20267;-60
2023/08/01 13:14:59;;;;;;;1.10;0.80;;;;;;;;;;5081731;28;20218;-60
2023/08/01 13:17:26;;;;;;;0.63;0.63;;;;;;;;;;5069330;28;20222;-60
2023/08/01 13:19:53;;;;;;;0.95;0.63;;;;;;;;;;5068725;28;20676;-60
2023/08/01 13:22:20;;;;;;;2.35;1.00;;;;;;;;;;5069280;28;20760;-60
2023/08/01 13:24:49;;;;;;;0.77;0.77;;;;;;;;;;5076368;28;20255;-60
2023/08/01 13:27:16;;;;;;;0.60;0.60;;;;;;;;;;5068969;28;20673;-61
2023/08/01 13:29:43;;;;;;;0.50;0.50;;;;;;;;;;5073969;28;20210;-60
2023/08/01 13:32:10;;;;;;;0.60;0.60;;;;;;;;;;5068920;28;20264;-60
2023/08/01 13:34:37;;;;;;;0.55;0.55;;;;;;;;;;5080579;28;20210;-60
2023/08/01 13:37:04;;;;;;;0.50;0.50;;;;;;;;;;5068713;28;20215;-60
2023/08/01 13:39:31;;;;;;;1.17;0.60;;;;;;;;;;5071141;28;20214;-60
2023/08/01 13:41:59;;;;;;;0.57;0.57;;;;;;;;;;5068980;28;20596;-60
2023/08/01 13:44:26;;;;;;;0.57;0.57;;;;;;;;;;5068028;28;20227;-60
2023/08/01 13:46:53;;;;;;;0.50;0.50;;;;;;;;;;5068461;28;20219;-60
2023/08/01 13:49:20;;;;;;;0.80;0.80;;;;;;;;;;5067991;28;20225;-60
2023/08/01 13:51:48;;;;;;;0.70;0.70;;;;;;;;;;5067735;28;20203;-59
2023/08/01 13:54:15;;;;;;;0.75;0.75;;;;;;;;;;5081249;28;20206;-60
2023/08/01 13:56:42;;;;;;;0.90;0.80;;;;;;;;;;5072198;28;20599;-60
2023/08/01 13:59:10;;;;;;;1.52;0.80;;;;;;;;;;5068510;28;20218;-60
2023/08/01 14:01:37;;;;;;;0.75;0.75;;;;;;;;;;5078989;28;20218;-61
2023/08/01 14:04:05;;;;;;;0.75;0.70;;;;;;;;;;5088594;28;20256;-63
2023/08/01 14:06:32;;;;;;;1.42;0.80;;;;;;;;;;5077939;28;20202;-63
2023/08/01 14:08:59;;;;;;;1.05;0.80;;;;;;;;;;5089028;28;20237;-63
2023/08/01 14:11:26;;;;;;;3.00;0.90;;;;;;;;;;5075421;28;20688;-63
2023/08/01 14:13:53;;;;;;;1.02;0.90;;;;;;;;;;5088370;28;20213;-63
2023/08/01 14:16:21;;;;;;;1.15;0.88;;;;;;;;;;5075953;28;20205;-63
2023/08/01 14:18:48;;;;;;;0.70;0.70;;;;;;;;;;5086112;28;20198;-63
2023/08/01 14:21:15;;;;;;;2.05;0.80;;;;;;;;;;5077157;28;20199;-63
2023/08/01 14:23:43;;;;;;;1.80;1.08;;;;;;;;;;5082944;28;20206;-63
2023/08/01 14:26:10;;;;;;;0.70;0.70;;;;;;;;;;5077941;28;20207;-63
2023/08/01 14:28:37;;;;;;;0.80;0.80;;;;;;;;;;5068135;28;20230;-62
2023/08/01 14:31:04;;;;;;;0.70;0.70;;;;;;;;;;5073351;28;20684;-63
2023/08/01 14:33:32;;;;;;;0.65;0.65;;;;;;;;;;5088710;28;20214;-62
2023/08/01 14:35:59;;;;;;;2.50;0.80;;;;;;;;;;5079909;28;20207;-63
2023/08/01 14:38:27;;;;;;;2.20;0.63;;;;;;;;;;5080035;28;20206;-62
2023/08/01 14:40:54;;;;;;;4.47;0.68;;;;;;;;;;5081030;28;20199;-62
2023/08/01 14:43:21;;;;;;;0.82;0.82;;;;;;;;;;5076986;28;20230;-62
2023/08/01 14:45:48;;;;;;;2.22;0.90;;;;;;;;;;5082272;28;20207;-62